Weather at Trading Bay Production Airport

Public forecast

Using degrees Fahrenheit for public forecast. Weather courtesy of forecast.io.

Closest aviation weather report (METAR) to Trading Bay Production Airport

Closest report is Kenai Municipal Airport, 21.9 nm (40.5 km) SE. Retrieved 2021/06/20 07:53 UTC (42 minutes ago):

PAEN 200753Z AUTO 00000KT 10SM CLR 11/08 A2999

Closest aviation forecast (TAF) to Trading Bay Production Airport

Closest forecast is Kenai Municipal Airport, 21.9 nm (40.5 km) SE. Retrieved 2021/06/20 06:42 UTC (2 hours ago):

TAF PAEN 200540Z 2006/2106 35006KT P6SM VCSH BKN070 FM202100 02008KT P6SM -RA SCT025 OVC035